Report METAR

 

LIEE - Elmas, IT
Distance from station: NO 11km
Dati ricevuti: 24/02/2024 22:20
Pioviggine, Parz. nuvoloso
Pioviggine, Parz. nuvoloso
 Vento da NO
Vento: NO 13 km/h
Temperatura: 10°C
Temperatura Vento: 8°C
P.to Rugiada: 8°C
Umidità: 88%
Barometro: 1010 hPa
Sommario: Pioviggine
Nuvole: Parz. nuvoloso
Visibility: 10 km
Cloud details: Few Clouds 914 m
Parz. nuvoloso 1372 m
2024/02/24 21:20 LIEE 242120Z 32007KT 9999 -RA FEW030 SCT045 10/08 Q1010
LIED - Decimomannu, IT
Distance from station: NO 23km
Dati ricevuti: 24/02/2024 21:55
Pioviggine, Parz. nuvoloso
Pioviggine, Parz. nuvoloso
 Vento da O
Vento: O 9 km/h
Temperatura: 9°C
Temperatura Vento: 7°C
P.to Rugiada: 8°C
Umidità: 94%
Barometro: 1009 hPa
Sommario: Pioviggine
Nuvole: Parz. nuvoloso
Visibility: 10 km
Cloud details: Few Clouds 610 m
Parz. nuvoloso 1219 m
2024/02/24 20:55 LIED 242055Z 26005KT 9999 -RA FEW020 SCT040 09/08 Q1009